createdAt,value
2023-01-28T00:02:23.484Z,29.88
2023-01-28T00:04:51.854Z,29.76
2023-01-28T00:07:21.610Z,29.75
2023-01-28T00:09:49.492Z,29.57
2023-01-28T00:12:17.464Z,29.53
2023-01-28T00:14:46.344Z,29.33
2023-01-28T00:17:14.575Z,29.69
2023-01-28T00:19:42.509Z,29.35
2023-01-28T00:22:10.442Z,29.72
2023-01-28T00:24:39.993Z,29.34
2023-01-28T00:27:07.875Z,29.54
2023-01-28T00:29:35.792Z,29.54
2023-01-28T00:32:03.678Z,29.67
2023-01-28T00:34:31.902Z,29.22
2023-01-28T00:36:59.776Z,29.60
2023-01-28T00:39:27.887Z,29.36
2023-01-28T00:41:57.216Z,29.34
2023-01-28T00:44:25.376Z,29.79
2023-01-28T00:46:53.343Z,29.70
2023-01-28T00:49:21.338Z,29.63
2023-01-28T00:51:49.963Z,29.43
2023-01-28T00:54:18.306Z,29.64
2023-01-28T00:56:46.297Z,29.24
2023-01-28T00:59:15.579Z,29.38
2023-01-28T01:01:43.491Z,29.52
2023-01-28T01:04:11.490Z,29.29
2023-01-28T01:06:40.023Z,29.41
2023-01-28T01:09:08.895Z,29.38
2023-01-28T01:11:36.828Z,29.51
2023-01-28T01:14:05.382Z,29.60
2023-01-28T01:16:36.221Z,29.68
2023-01-28T01:19:04.177Z,29.29
2023-01-28T01:21:32.181Z,29.53
2023-01-28T01:24:00.415Z,29.20
2023-01-28T01:26:28.481Z,29.13
2023-01-28T01:28:56.356Z,29.62
2023-01-28T01:31:24.341Z,29.22
2023-01-28T01:33:53.703Z,29.13
2023-01-28T01:36:22.110Z,29.53
2023-01-28T01:38:53.608Z,29.31
2023-01-28T01:41:27.375Z,29.33
2023-01-28T01:43:56.508Z,29.31
2023-01-28T01:46:27.354Z,29.31
2023-01-28T01:48:56.651Z,29.39
2023-01-28T01:51:26.579Z,29.07
2023-01-28T01:53:54.916Z,29.56
2023-01-28T01:56:24.077Z,28.99
2023-01-28T01:58:52.184Z,29.30
2023-01-28T02:01:20.878Z,29.21
2023-01-28T02:03:53.288Z,29.27
2023-01-28T02:06:22.663Z,28.96
2023-01-28T02:08:50.549Z,28.95
2023-01-28T02:11:18.765Z,29.43
2023-01-28T02:13:49.263Z,29.04
2023-01-28T02:16:17.177Z,29.30
2023-01-28T02:18:45.062Z,28.93
2023-01-28T02:21:35.014Z,29.40
2023-01-28T02:24:23.528Z,29.50
2023-01-28T02:26:57.788Z,29.20
2023-01-28T02:29:28.539Z,29.31
2023-01-28T02:32:00.074Z,28.98
2023-01-28T02:34:34.420Z,29.00
2023-01-28T02:37:04.429Z,28.92
2023-01-28T02:39:34.609Z,29.39
2023-01-28T02:42:03.849Z,29.09
2023-01-28T02:44:33.424Z,29.13
2023-01-28T02:47:18.471Z,28.99
2023-01-28T02:49:48.393Z,29.27
2023-01-28T02:52:41.901Z,28.88
2023-01-28T02:55:10.323Z,28.90
2023-01-28T02:57:39.711Z,29.23
2023-01-28T03:00:12.729Z,29.24
2023-01-28T03:02:44.057Z,29.21
2023-01-28T03:05:14.807Z,28.94
2023-01-28T03:07:42.884Z,28.79
2023-01-28T03:10:12.380Z,29.22
2023-01-28T03:12:59.059Z,29.21
2023-01-28T03:15:47.477Z,29.18
2023-01-28T03:18:34.820Z,28.91
2023-01-28T03:21:23.118Z,29.21
2023-01-28T03:24:13.220Z,29.04
2023-01-28T03:27:03.389Z,28.92
2023-01-28T03:29:48.889Z,29.13
2023-01-28T03:32:36.108Z,29.09
2023-01-28T03:35:21.230Z,29.00
2023-01-28T03:37:49.159Z,29.13
2023-01-28T03:40:18.863Z,29.19
2023-01-28T03:42:46.755Z,29.09
2023-01-28T03:45:15.710Z,29.16
2023-01-28T03:47:45.084Z,28.86
2023-01-28T03:50:12.987Z,28.85
2023-01-28T03:52:40.920Z,28.99
2023-01-28T03:55:13.386Z,28.83
2023-01-28T03:57:41.799Z,28.86
2023-01-28T04:00:11.646Z,28.67
2023-01-28T04:02:40.237Z,29.06
2023-01-28T04:05:13.115Z,29.06
2023-01-28T04:07:42.172Z,28.77
2023-01-28T04:10:11.203Z,28.57
2023-01-28T04:12:39.090Z,29.03
2023-01-28T04:15:16.004Z,28.71
2023-01-28T04:17:47.163Z,28.81
2023-01-28T04:20:16.697Z,28.66
2023-01-28T04:22:44.576Z,28.99
2023-01-28T04:25:13.227Z,28.89
2023-01-28T04:27:41.395Z,29.05
2023-01-28T04:30:10.873Z,28.87
2023-01-28T04:32:39.065Z,29.11
2023-01-28T04:35:07.867Z,28.50
2023-01-28T04:37:37.157Z,28.93
2023-01-28T04:40:05.673Z,28.55
2023-01-28T04:42:33.565Z,28.88
2023-01-28T04:45:01.719Z,28.64
2023-01-28T04:47:29.562Z,28.66
2023-01-28T04:49:57.501Z,28.66
2023-01-28T04:52:25.486Z,28.89
2023-01-28T04:54:55.006Z,28.59
2023-01-28T04:57:22.921Z,28.50
2023-01-28T04:59:50.833Z,28.59
2023-01-28T05:02:18.802Z,28.55
2023-01-28T05:04:47.374Z,28.49
2023-01-28T05:07:15.240Z,28.66
2023-01-28T05:09:43.149Z,28.84
2023-01-28T05:12:12.422Z,28.66
2023-01-28T05:14:40.565Z,28.94
2023-01-28T05:17:08.503Z,28.61
2023-01-28T05:19:36.423Z,28.79
2023-01-28T05:22:04.298Z,28.47
2023-01-28T05:24:32.514Z,28.39
2023-01-28T05:27:00.617Z,28.49
2023-01-28T05:29:29.890Z,28.76
2023-01-28T05:31:57.747Z,28.60
2023-01-28T05:34:26.208Z,28.46
2023-01-28T05:36:54.093Z,28.89
2023-01-28T05:39:21.978Z,28.69
2023-01-28T05:41:49.887Z,28.39
2023-01-28T05:44:18.031Z,28.84
2023-01-28T05:46:47.333Z,28.72
2023-01-28T05:49:15.250Z,28.53
2023-01-28T05:51:43.180Z,28.63
2023-01-28T05:54:11.493Z,28.23
2023-01-28T05:56:40.348Z,28.17
2023-01-28T05:59:08.231Z,28.29
2023-01-28T06:01:36.127Z,28.37
2023-01-28T06:04:05.934Z,28.53
2023-01-28T06:06:33.839Z,28.52
2023-01-28T06:09:01.727Z,28.36
2023-01-28T06:11:29.614Z,28.41
2023-01-28T06:13:57.775Z,28.33
2023-01-28T06:16:25.835Z,28.47
2023-01-28T06:18:53.771Z,28.65
2023-01-28T06:21:23.052Z,28.60
2023-01-28T06:23:50.924Z,28.13
2023-01-28T06:26:18.818Z,28.40
2023-01-28T06:28:46.686Z,28.58
2023-01-28T06:31:14.637Z,28.64
2023-01-28T06:33:42.557Z,28.71
2023-01-28T06:36:11.064Z,28.17
2023-01-28T06:38:40.348Z,28.45
2023-01-28T06:41:08.273Z,28.67
2023-01-28T06:43:36.151Z,28.15
2023-01-28T06:46:04.332Z,28.45
2023-01-28T06:48:32.265Z,28.04
2023-01-28T06:51:00.231Z,28.09
2023-01-28T06:53:28.140Z,28.19
2023-01-28T06:55:57.708Z,28.54
2023-01-28T06:58:25.672Z,28.21
2023-01-28T07:00:54.561Z,28.53
2023-01-28T07:03:22.631Z,28.46
2023-01-28T07:05:51.023Z,28.58
2023-01-28T07:08:19.071Z,28.40
2023-01-28T07:10:47.095Z,28.21
2023-01-28T07:13:16.489Z,28.39
2023-01-28T07:15:44.802Z,28.06
2023-01-28T07:18:12.815Z,27.99
2023-01-28T07:20:40.832Z,28.51
2023-01-28T07:23:08.742Z,28.51
2023-01-28T07:25:36.980Z,28.06
2023-01-28T07:28:05.008Z,28.04
2023-01-28T07:30:34.403Z,28.35
2023-01-28T07:33:02.416Z,28.13
2023-01-28T07:35:32.431Z,27.88
2023-01-28T07:38:01.037Z,28.29
2023-01-28T07:40:29.313Z,28.44
2023-01-28T07:42:57.242Z,28.34
2023-01-28T07:45:25.578Z,28.28
2023-01-28T07:47:58.338Z,28.16
2023-01-28T07:50:26.566Z,28.27
2023-01-28T07:52:54.790Z,28.21
2023-01-28T07:55:22.984Z,28.08
2023-01-28T07:57:52.182Z,28.07
2023-01-28T08:00:20.884Z,28.33
2023-01-28T08:02:49.070Z,28.11
2023-01-28T08:05:20.540Z,28.10
2023-01-28T08:07:49.511Z,27.89
2023-01-28T08:10:18.020Z,28.17
2023-01-28T08:12:53.283Z,28.04
2023-01-28T08:15:21.142Z,28.10
2023-01-28T08:17:49.010Z,28.24
2023-01-28T08:20:17.731Z,28.00
2023-01-28T08:22:47.114Z,28.09
2023-01-28T08:25:15.411Z,27.79
2023-01-28T08:27:43.361Z,28.20
2023-01-28T08:30:12.588Z,27.75
2023-01-28T08:32:40.993Z,27.67
2023-01-28T08:35:09.668Z,27.76
2023-01-28T08:37:37.686Z,27.73
2023-01-28T08:40:08.540Z,28.21
2023-01-28T08:42:36.457Z,28.06
2023-01-28T08:45:04.726Z,27.71
2023-01-28T08:47:32.586Z,27.87
2023-01-28T08:50:00.503Z,27.92
2023-01-28T08:52:28.360Z,27.62
2023-01-28T08:54:56.496Z,27.86
2023-01-28T08:57:25.763Z,28.13
2023-01-28T08:59:53.639Z,27.86
2023-01-28T09:02:31.035Z,27.52
2023-01-28T09:04:59.974Z,27.66
2023-01-28T09:07:27.843Z,27.71
2023-01-28T09:09:55.764Z,27.87
2023-01-28T09:12:25.099Z,27.58
2023-01-28T09:14:53.620Z,27.96
2023-01-28T09:17:21.561Z,27.88
2023-01-28T09:19:50.025Z,27.66
2023-01-28T09:22:17.971Z,27.96
2023-01-28T09:24:46.178Z,27.82
2023-01-28T09:27:14.136Z,28.17
2023-01-28T09:29:43.379Z,27.54
2023-01-28T09:32:11.364Z,28.02
2023-01-28T09:34:40.527Z,27.72
2023-01-28T09:37:08.408Z,27.82
2023-01-28T09:39:36.316Z,28.05
2023-01-28T09:42:14.255Z,27.94
2023-01-28T09:44:54.115Z,27.65
2023-01-28T09:47:25.553Z,27.79
2023-01-28T09:49:54.250Z,27.85
2023-01-28T09:52:23.247Z,27.83
2023-01-28T09:54:52.103Z,27.78
2023-01-28T09:57:22.004Z,27.89
2023-01-28T09:59:51.289Z,27.85
2023-01-28T10:02:36.337Z,27.85
2023-01-28T10:05:09.007Z,28.09
2023-01-28T10:07:39.896Z,27.58
2023-01-28T10:10:09.980Z,27.82
2023-01-28T10:12:45.200Z,27.70
2023-01-28T10:15:41.076Z,27.99
2023-01-28T10:18:17.053Z,28.06
2023-01-28T10:20:46.805Z,27.78
2023-01-28T10:23:17.404Z,27.75
2023-01-28T10:25:48.145Z,28.04
2023-01-28T10:28:20.255Z,27.54
2023-01-28T10:30:49.793Z,27.99
2023-01-28T10:33:20.400Z,27.57
2023-01-28T10:35:48.760Z,27.87
2023-01-28T10:38:17.329Z,28.01
2023-01-28T10:40:48.344Z,27.66
2023-01-28T10:43:17.490Z,27.75
2023-01-28T10:45:54.305Z,27.90
2023-01-28T10:48:24.245Z,27.98
2023-01-28T10:50:52.497Z,27.52
2023-01-28T10:53:20.624Z,27.74
2023-01-28T10:55:51.656Z,27.56
2023-01-28T10:58:20.958Z,27.30
2023-01-28T11:00:53.716Z,27.95
2023-01-28T11:03:21.682Z,27.57
2023-01-28T11:05:53.066Z,27.86
2023-01-28T11:08:21.073Z,27.87
2023-01-28T11:10:49.053Z,28.00
2023-01-28T11:13:18.112Z,27.83
2023-01-28T11:15:51.029Z,27.92
2023-01-28T11:18:20.263Z,27.69
2023-01-28T11:20:52.843Z,27.52
2023-01-28T11:23:23.030Z,27.30
2023-01-28T11:25:51.191Z,27.49
2023-01-28T11:28:19.795Z,27.60
2023-01-28T11:30:52.681Z,27.77
2023-01-28T11:33:21.415Z,27.61
2023-01-28T11:35:56.013Z,27.40
2023-01-28T11:38:24.971Z,27.60
2023-01-28T11:40:53.679Z,27.29
2023-01-28T11:43:22.075Z,27.39
2023-01-28T11:45:55.955Z,27.83
2023-01-28T11:48:29.687Z,27.44
2023-01-28T11:50:59.578Z,27.30
2023-01-28T11:53:40.418Z,27.58
2023-01-28T11:56:20.266Z,27.54
2023-01-28T11:58:52.632Z,27.48
2023-01-28T12:01:24.145Z,27.82
2023-01-28T12:04:02.847Z,27.81
2023-01-28T12:06:40.311Z,27.60
2023-01-28T12:09:14.267Z,27.31
2023-01-28T12:12:07.374Z,27.66
2023-01-28T12:14:38.521Z,27.70
2023-01-28T12:17:14.446Z,27.45
2023-01-28T12:19:56.385Z,27.35
2023-01-28T12:23:01.789Z,27.33
2023-01-28T12:25:37.051Z,27.37
2023-01-28T12:28:10.064Z,27.46
2023-01-28T12:31:04.370Z,27.46
2023-01-28T12:33:45.522Z,27.54
2023-01-28T12:36:21.404Z,27.81
2023-01-28T12:38:54.032Z,27.44
2023-01-28T12:41:23.609Z,27.30
2023-01-28T12:43:54.485Z,27.44
2023-01-28T12:46:33.357Z,27.62
2023-01-28T12:49:05.772Z,27.66
2023-01-28T12:51:35.944Z,27.12
2023-01-28T12:54:07.067Z,27.57
2023-01-28T12:56:35.630Z,27.37
2023-01-28T12:59:05.432Z,27.61
2023-01-28T13:01:38.444Z,27.79
2023-01-28T13:04:09.659Z,27.50
2023-01-28T13:06:39.482Z,27.70
2023-01-28T13:09:13.204Z,27.25
2023-01-28T13:11:41.140Z,27.23
2023-01-28T13:14:10.290Z,27.61
2023-01-28T13:16:38.578Z,27.55
2023-01-28T13:19:09.431Z,27.73
2023-01-28T13:21:48.649Z,27.61
2023-01-28T13:24:23.051Z,27.59
2023-01-28T13:26:51.627Z,27.43
2023-01-28T13:29:22.128Z,27.58
2023-01-28T13:31:52.425Z,27.30
2023-01-28T13:34:36.611Z,27.64
2023-01-28T13:37:06.445Z,27.65
2023-01-28T13:39:35.165Z,27.34
2023-01-28T13:42:11.132Z,27.48
2023-01-28T13:44:39.343Z,27.63
2023-01-28T13:47:16.180Z,27.25
2023-01-28T13:49:45.996Z,27.13
2023-01-28T13:52:16.098Z,27.34
2023-01-28T13:54:45.566Z,27.47
2023-01-28T13:57:35.143Z,27.31
2023-01-28T14:00:08.745Z,27.32
2023-01-28T14:02:57.662Z,27.17
2023-01-28T14:05:47.184Z,27.31
2023-01-28T14:08:47.567Z,27.12
2023-01-28T14:11:23.439Z,27.07
2023-01-28T14:14:28.279Z,27.06
2023-01-28T14:16:57.055Z,27.48
2023-01-28T14:19:32.790Z,27.44
2023-01-28T14:22:08.327Z,27.19
2023-01-28T14:24:37.628Z,27.26
2023-01-28T14:27:08.045Z,27.29
2023-01-28T14:29:44.102Z,27.61
2023-01-28T14:32:14.169Z,27.23
2023-01-28T14:34:42.368Z,27.24
2023-01-28T14:37:14.204Z,27.49
2023-01-28T14:39:44.657Z,27.22
2023-01-28T14:42:15.626Z,27.30
2023-01-28T14:44:43.764Z,27.29
2023-01-28T14:47:30.148Z,27.29
2023-01-28T14:50:06.202Z,27.38
2023-01-28T14:53:15.076Z,27.23
2023-01-28T14:55:47.452Z,27.00
2023-01-28T14:58:17.375Z,27.48
2023-01-28T15:00:54.315Z,27.32
2023-01-28T15:03:26.076Z,27.31
2023-01-28T15:06:04.534Z,27.41
2023-01-28T15:08:33.823Z,27.40
2023-01-28T15:11:01.749Z,27.33
2023-01-28T15:13:30.535Z,27.37
2023-01-28T15:16:00.715Z,27.34
2023-01-28T15:18:31.923Z,27.22
2023-01-28T15:20:59.803Z,27.06
2023-01-28T15:23:30.285Z,27.34
2023-01-28T15:25:59.812Z,27.12
2023-01-28T15:28:29.128Z,26.95
2023-01-28T15:30:57.152Z,27.51
2023-01-28T15:33:25.376Z,27.22
2023-01-28T15:35:54.154Z,27.18
2023-01-28T15:38:22.121Z,26.96
2023-01-28T15:40:51.500Z,27.22
2023-01-28T15:43:22.965Z,27.42
2023-01-28T15:45:52.350Z,27.05
2023-01-28T15:48:20.241Z,26.86
2023-01-28T15:50:48.190Z,27.41
2023-01-28T15:53:16.114Z,27.40
2023-01-28T15:55:44.414Z,26.94
2023-01-28T15:58:30.568Z,27.32
2023-01-28T16:01:15.560Z,26.87
2023-01-28T16:03:44.656Z,27.32
2023-01-28T16:06:13.931Z,27.26
2023-01-28T16:08:43.239Z,27.23
2023-01-28T16:11:11.189Z,27.17
2023-01-28T16:13:44.244Z,27.29
2023-01-28T16:16:12.527Z,27.02
2023-01-28T16:18:41.585Z,27.07
2023-01-28T16:21:11.859Z,27.13
2023-01-28T16:23:40.022Z,26.78
2023-01-28T16:26:20.424Z,26.78
2023-01-28T16:28:49.864Z,27.40
2023-01-28T16:31:17.886Z,27.09
2023-01-28T16:33:45.806Z,27.30
2023-01-28T16:36:14.134Z,27.48
2023-01-28T16:38:42.088Z,27.00
2023-01-28T16:41:14.431Z,27.00
2023-01-28T16:43:42.339Z,27.01
2023-01-28T16:46:14.957Z,26.85
2023-01-28T16:48:42.924Z,27.02
2023-01-28T16:51:15.671Z,27.01
2023-01-28T16:53:43.545Z,26.71
2023-01-28T16:56:35.700Z,26.97
2023-01-28T16:59:01.926Z,26.84
2023-01-28T17:01:31.229Z,27.25
2023-01-28T17:03:59.458Z,26.77
2023-01-28T17:06:27.419Z,27.05
2023-01-28T17:08:55.349Z,27.07
2023-01-28T17:11:23.247Z,26.89
2023-01-28T17:13:51.146Z,27.03
2023-01-28T17:16:19.455Z,26.79
2023-01-28T17:18:52.341Z,26.91
2023-01-28T17:21:20.219Z,27.02
2023-01-28T17:23:48.173Z,26.97
2023-01-28T17:26:16.582Z,26.79
2023-01-28T17:28:44.526Z,27.13
2023-01-28T17:31:13.719Z,26.69
2023-01-28T17:33:41.909Z,26.71
2023-01-28T17:36:11.955Z,26.78
2023-01-28T17:38:39.850Z,26.60
2023-01-28T17:41:08.435Z,26.67
2023-01-28T17:43:36.331Z,26.72
2023-01-28T17:46:11.764Z,26.91
2023-01-28T17:48:39.672Z,26.83
2023-01-28T17:51:07.651Z,26.87
2023-01-28T17:53:36.956Z,26.78
2023-01-28T17:56:05.488Z,26.82
2023-01-28T17:58:33.485Z,27.02
2023-01-28T18:01:01.441Z,26.71
2023-01-28T18:03:29.348Z,26.70
2023-01-28T18:06:00.431Z,26.80
2023-01-28T18:08:28.353Z,26.95
2023-01-28T18:10:57.605Z,26.82
2023-01-28T18:13:25.657Z,27.20
2023-01-28T18:15:53.836Z,26.78
2023-01-28T18:18:21.710Z,26.77
2023-01-28T18:20:58.126Z,26.59
2023-01-28T18:23:26.067Z,26.59
2023-01-28T18:25:58.338Z,27.06
2023-01-28T18:28:26.350Z,27.00
2023-01-28T18:30:54.323Z,26.54
2023-01-28T18:33:23.364Z,27.07
2023-01-28T18:35:51.830Z,26.46
2023-01-28T18:38:19.729Z,27.02
2023-01-28T18:40:47.659Z,26.60
2023-01-28T18:43:16.925Z,27.03
2023-01-28T18:45:49.298Z,26.54
2023-01-28T18:48:17.505Z,26.82
2023-01-28T18:50:50.935Z,26.76
2023-01-28T18:53:18.834Z,26.53
2023-01-28T18:55:46.730Z,26.99
2023-01-28T18:58:16.052Z,26.47
2023-01-28T19:00:43.946Z,26.64
2023-01-28T19:03:11.872Z,26.78
2023-01-28T19:05:40.261Z,26.65
2023-01-28T19:08:08.556Z,26.55
2023-01-28T19:10:36.516Z,26.84
2023-01-28T19:13:04.409Z,26.81
2023-01-28T19:15:33.714Z,27.01
2023-01-28T19:18:03.364Z,26.66
2023-01-28T19:20:31.237Z,26.69
2023-01-28T19:22:59.186Z,26.46
2023-01-28T19:25:27.038Z,26.59
2023-01-28T19:27:55.663Z,26.65
2023-01-28T19:30:23.572Z,26.71
2023-01-28T19:32:54.011Z,26.89
2023-01-28T19:35:21.956Z,26.38
2023-01-28T19:37:49.867Z,26.45
2023-01-28T19:40:18.641Z,26.88
2023-01-28T19:42:46.678Z,26.48
2023-01-28T19:45:14.912Z,26.44
2023-01-28T19:47:42.880Z,26.53
2023-01-28T19:50:13.017Z,26.44
2023-01-28T19:52:40.907Z,26.41
2023-01-28T19:55:10.223Z,26.61
2023-01-28T19:57:38.596Z,26.37
2023-01-28T20:00:09.337Z,26.89
2023-01-28T20:02:37.281Z,26.83
2023-01-28T20:05:06.073Z,26.70
2023-01-28T20:07:35.394Z,26.61
2023-01-28T20:10:03.321Z,26.62
2023-01-28T20:12:31.384Z,26.40
2023-01-28T20:14:59.236Z,26.35
2023-01-28T20:17:28.559Z,26.38
2023-01-28T20:19:56.548Z,26.63
2023-01-28T20:22:24.424Z,26.73
2023-01-28T20:24:57.220Z,26.58
2023-01-28T20:27:25.528Z,26.24
2023-01-28T20:29:53.498Z,26.54
2023-01-28T20:32:23.126Z,26.45
2023-01-28T20:34:51.920Z,26.55
2023-01-28T20:37:19.864Z,26.83
2023-01-28T20:39:47.798Z,26.61
2023-01-28T20:42:17.127Z,26.72
2023-01-28T20:44:45.175Z,26.54
2023-01-28T20:47:13.105Z,26.36
2023-01-28T20:49:41.757Z,26.44
2023-01-28T20:52:10.349Z,26.46
2023-01-28T20:54:38.465Z,26.24
2023-01-28T20:57:07.095Z,26.42
2023-01-28T20:59:37.245Z,26.69
2023-01-28T21:02:07.026Z,26.45
2023-01-28T21:04:35.995Z,26.77
2023-01-28T21:07:03.908Z,26.28
2023-01-28T21:09:31.846Z,26.52
2023-01-28T21:12:00.029Z,26.19
2023-01-28T21:14:27.948Z,26.23
2023-01-28T21:16:57.554Z,26.35
2023-01-28T21:19:25.569Z,26.55
2023-01-28T21:21:53.539Z,26.63
2023-01-28T21:24:21.853Z,26.69
2023-01-28T21:26:49.745Z,26.24
2023-01-28T21:29:18.861Z,26.60
2023-01-28T21:31:46.819Z,26.29
2023-01-28T21:34:16.859Z,26.28
2023-01-28T21:36:44.930Z,26.47
2023-01-28T21:39:12.850Z,26.19
2023-01-28T21:41:41.103Z,26.13
2023-01-28T21:44:09.034Z,26.47
2023-01-28T21:46:37.048Z,26.49
2023-01-28T21:49:05.347Z,26.53
2023-01-28T21:51:39.760Z,26.15
2023-01-28T21:54:08.825Z,26.38
2023-01-28T21:56:36.692Z,26.30
2023-01-28T21:59:22.096Z,26.44
2023-01-28T22:01:50.129Z,26.31
2023-01-28T22:04:18.087Z,26.35
2023-01-28T22:06:47.437Z,26.38
2023-01-28T22:09:15.307Z,26.09
2023-01-28T22:11:43.790Z,26.41
2023-01-28T22:14:11.774Z,26.53
2023-01-28T22:16:39.825Z,26.55
2023-01-28T22:19:07.740Z,26.20
2023-01-28T22:21:40.984Z,26.30
2023-01-28T22:24:12.002Z,26.37
2023-01-28T22:26:39.940Z,26.46
2023-01-28T22:29:07.938Z,26.23
2023-01-28T22:31:36.072Z,26.32
2023-01-28T22:34:04.657Z,26.48
2023-01-28T22:36:33.531Z,26.49
2023-01-28T22:39:02.010Z,26.12
2023-01-28T22:41:31.629Z,26.28
2023-01-28T22:44:01.601Z,26.29
2023-01-28T22:46:29.787Z,26.52
2023-01-28T22:48:57.728Z,26.09
2023-01-28T22:51:26.409Z,26.09
2023-01-28T22:53:54.437Z,26.06
2023-01-28T22:56:23.767Z,26.31
2023-01-28T22:58:56.778Z,26.27
2023-01-28T23:01:25.924Z,26.41
2023-01-28T23:03:55.790Z,26.08
2023-01-28T23:06:23.884Z,25.99
2023-01-28T23:08:52.007Z,26.03
2023-01-28T23:11:27.360Z,26.31
2023-01-28T23:14:15.059Z,25.97
2023-01-28T23:17:00.717Z,25.94
2023-01-28T23:19:46.005Z,26.42
2023-01-28T23:22:33.843Z,26.33
2023-01-28T23:25:01.771Z,26.34
2023-01-28T23:27:29.810Z,26.46
2023-01-28T23:29:59.104Z,26.07
2023-01-28T23:32:27.032Z,26.20
2023-01-28T23:34:54.885Z,26.22
2023-01-28T23:37:23.168Z,26.20
2023-01-28T23:39:51.131Z,26.19
2023-01-28T23:42:20.772Z,26.03
2023-01-28T23:44:48.917Z,26.31
2023-01-28T23:47:19.133Z,26.03
2023-01-28T23:49:46.997Z,25.99
2023-01-28T23:52:15.278Z,26.11
2023-01-28T23:54:43.147Z,25.97
2023-01-28T23:57:11.016Z,25.98
2023-01-28T23:59:38.912Z,25.89
